sensor_id;sensor_type;location;lat;lon;timestamp;P1;durP1;ratioP1;P2;durP2;ratioP2
42246;SDS011;27913;42.722;23.268;2023-03-21T00:00:35;19.63;;;7.60;;
42246;SDS011;27913;42.722;23.268;2023-03-21T00:05:42;25.33;;;8.48;;
42246;SDS011;27913;42.722;23.268;2023-03-21T00:08:13;18.85;;;7.47;;
42246;SDS011;27913;42.722;23.268;2023-03-21T00:10:40;19.52;;;8.93;;
42246;SDS011;27913;42.722;23.268;2023-03-21T00:13:05;17.70;;;7.53;;
42246;SDS011;27913;42.722;23.268;2023-03-21T00:15:31;16.75;;;7.45;;
42246;SDS011;27913;42.722;23.268;2023-03-21T00:17:57;18.45;;;7.82;;
42246;SDS011;27913;42.722;23.268;2023-03-21T00:20:28;16.45;;;7.70;;
42246;SDS011;27913;42.722;23.268;2023-03-21T00:23:01;17.10;;;7.25;;
42246;SDS011;27913;42.722;23.268;2023-03-21T00:25:27;19.67;;;7.90;;
42246;SDS011;27913;42.722;23.268;2023-03-21T00:27:56;18.02;;;7.35;;
42246;SDS011;27913;42.722;23.268;2023-03-21T00:30:21;17.95;;;7.43;;
42246;SDS011;27913;42.722;23.268;2023-03-21T00:32:47;19.23;;;7.72;;
42246;SDS011;27913;42.722;23.268;2023-03-21T00:35:14;13.77;;;6.70;;
42246;SDS011;27913;42.722;23.268;2023-03-21T00:37:40;15.80;;;7.03;;
42246;SDS011;27913;42.722;23.268;2023-03-21T00:40:05;15.13;;;7.55;;
42246;SDS011;27913;42.722;23.268;2023-03-21T00:42:34;13.48;;;6.80;;
42246;SDS011;27913;42.722;23.268;2023-03-21T00:45:01;17.15;;;6.32;;
42246;SDS011;27913;42.722;23.268;2023-03-21T00:47:27;17.20;;;6.75;;
42246;SDS011;27913;42.722;23.268;2023-03-21T00:49:52;18.20;;;6.78;;
42246;SDS011;27913;42.722;23.268;2023-03-21T00:52:18;14.35;;;6.45;;
42246;SDS011;27913;42.722;23.268;2023-03-21T00:54:44;14.15;;;6.53;;
42246;SDS011;27913;42.722;23.268;2023-03-21T00:57:09;19.55;;;7.13;;
42246;SDS011;27913;42.722;23.268;2023-03-21T00:59:35;15.48;;;7.07;;
42246;SDS011;27913;42.722;23.268;2023-03-21T01:02:01;20.52;;;6.30;;
42246;SDS011;27913;42.722;23.268;2023-03-21T01:04:31;13.82;;;6.32;;
42246;SDS011;27913;42.722;23.268;2023-03-21T01:06:58;12.65;;;6.40;;
42246;SDS011;27913;42.722;23.268;2023-03-21T01:09:24;17.90;;;8.45;;
42246;SDS011;27913;42.722;23.268;2023-03-21T01:11:50;16.95;;;6.85;;
42246;SDS011;27913;42.722;23.268;2023-03-21T01:14:17;13.45;;;6.43;;
42246;SDS011;27913;42.722;23.268;2023-03-21T01:16:43;14.88;;;6.43;;
42246;SDS011;27913;42.722;23.268;2023-03-21T01:19:11;14.82;;;6.60;;
42246;SDS011;27913;42.722;23.268;2023-03-21T01:21:38;13.60;;;5.90;;
42246;SDS011;27913;42.722;23.268;2023-03-21T01:24:04;16.58;;;6.10;;
42246;SDS011;27913;42.722;23.268;2023-03-21T01:26:30;13.63;;;5.85;;
42246;SDS011;27913;42.722;23.268;2023-03-21T01:28:56;22.17;;;6.68;;
42246;SDS011;27913;42.722;23.268;2023-03-21T01:31:21;11.25;;;5.65;;
42246;SDS011;27913;42.722;23.268;2023-03-21T01:33:47;15.77;;;6.40;;
42246;SDS011;27913;42.722;23.268;2023-03-21T01:36:14;20.88;;;6.50;;
42246;SDS011;27913;42.722;23.268;2023-03-21T01:38:45;15.88;;;6.70;;
42246;SDS011;27913;42.722;23.268;2023-03-21T01:41:25;15.18;;;5.75;;
42246;SDS011;27913;42.722;23.268;2023-03-21T01:43:54;9.88;;;4.82;;
42246;SDS011;27913;42.722;23.268;2023-03-21T01:46:36;21.40;;;6.38;;
42246;SDS011;27913;42.722;23.268;2023-03-21T01:49:13;16.02;;;5.97;;
42246;SDS011;27913;42.722;23.268;2023-03-21T01:52:02;13.98;;;5.68;;
42246;SDS011;27913;42.722;23.268;2023-03-21T01:54:32;13.75;;;4.90;;
42246;SDS011;27913;42.722;23.268;2023-03-21T01:57:03;14.23;;;5.30;;
42246;SDS011;27913;42.722;23.268;2023-03-21T02:02:05;10.60;;;5.25;;
42246;SDS011;27913;42.722;23.268;2023-03-21T02:04:35;12.18;;;4.97;;
42246;SDS011;27913;42.722;23.268;2023-03-21T02:07:06;19.67;;;5.50;;
42246;SDS011;27913;42.722;23.268;2023-03-21T02:09:36;13.07;;;5.53;;
42246;SDS011;27913;42.722;23.268;2023-03-21T02:12:06;9.95;;;5.05;;
42246;SDS011;27913;42.722;23.268;2023-03-21T02:14:33;12.82;;;5.40;;
42246;SDS011;27913;42.722;23.268;2023-03-21T02:28:36;11.68;;;5.15;;
42246;SDS011;27913;42.722;23.268;2023-03-21T02:31:16;10.43;;;4.93;;
42246;SDS011;27913;42.722;23.268;2023-03-21T02:33:56;11.70;;;5.22;;
42246;SDS011;27913;42.722;23.268;2023-03-21T02:40:00;12.73;;;5.85;;
42246;SDS011;27913;42.722;23.268;2023-03-21T02:45:02;11.27;;;4.78;;
42246;SDS011;27913;42.722;23.268;2023-03-21T02:47:34;12.52;;;5.63;;
42246;SDS011;27913;42.722;23.268;2023-03-21T02:50:09;10.45;;;4.97;;
42246;SDS011;27913;42.722;23.268;2023-03-21T02:52:39;11.02;;;4.93;;
42246;SDS011;27913;42.722;23.268;2023-03-21T02:55:14;10.13;;;4.32;;
42246;SDS011;27913;42.722;23.268;2023-03-21T02:57:43;14.52;;;4.78;;
42246;SDS011;27913;42.722;23.268;2023-03-21T03:00:17;10.95;;;4.63;;
42246;SDS011;27913;42.722;23.268;2023-03-21T03:02:45;9.98;;;5.25;;
42246;SDS011;27913;42.722;23.268;2023-03-21T03:05:18;13.65;;;5.43;;
42246;SDS011;27913;42.722;23.268;2023-03-21T03:07:55;10.70;;;4.93;;
42246;SDS011;27913;42.722;23.268;2023-03-21T03:10:33;9.18;;;4.38;;
42246;SDS011;27913;42.722;23.268;2023-03-21T03:18:48;12.68;;;4.68;;
42246;SDS011;27913;42.722;23.268;2023-03-21T03:24:06;15.32;;;6.28;;
42246;SDS011;27913;42.722;23.268;2023-03-21T03:26:42;16.60;;;6.22;;
42246;SDS011;27913;42.722;23.268;2023-03-21T03:29:14;16.23;;;6.05;;
42246;SDS011;27913;42.722;23.268;2023-03-21T03:31:44;14.88;;;7.07;;
42246;SDS011;27913;42.722;23.268;2023-03-21T03:34:15;12.93;;;5.10;;
42246;SDS011;27913;42.722;23.268;2023-03-21T03:36:49;11.10;;;5.32;;
42246;SDS011;27913;42.722;23.268;2023-03-21T03:39:35;10.32;;;4.65;;
42246;SDS011;27913;42.722;23.268;2023-03-21T03:42:14;14.85;;;5.47;;
42246;SDS011;27913;42.722;23.268;2023-03-21T03:44:44;11.40;;;4.70;;
42246;SDS011;27913;42.722;23.268;2023-03-21T03:47:43;13.68;;;4.93;;
42246;SDS011;27913;42.722;23.268;2023-03-21T03:50:13;14.50;;;5.18;;
42246;SDS011;27913;42.722;23.268;2023-03-21T03:52:51;12.07;;;4.63;;
42246;SDS011;27913;42.722;23.268;2023-03-21T03:55:21;12.60;;;4.82;;
42246;SDS011;27913;42.722;23.268;2023-03-21T03:57:51;9.98;;;4.47;;
42246;SDS011;27913;42.722;23.268;2023-03-21T04:00:17;12.55;;;4.88;;
42246;SDS011;27913;42.722;23.268;2023-03-21T04:02:44;10.98;;;5.00;;
42246;SDS011;27913;42.722;23.268;2023-03-21T04:05:11;11.75;;;4.70;;
42246;SDS011;27913;42.722;23.268;2023-03-21T04:07:37;14.70;;;5.28;;
42246;SDS011;27913;42.722;23.268;2023-03-21T04:10:03;10.45;;;4.43;;
42246;SDS011;27913;42.722;23.268;2023-03-21T04:12:29;10.93;;;4.28;;
42246;SDS011;27913;42.722;23.268;2023-03-21T04:14:55;11.10;;;4.95;;
42246;SDS011;27913;42.722;23.268;2023-03-21T04:17:20;11.70;;;4.57;;
42246;SDS011;27913;42.722;23.268;2023-03-21T04:19:46;10.88;;;4.80;;
42246;SDS011;27913;42.722;23.268;2023-03-21T04:22:11;20.75;;;6.05;;
42246;SDS011;27913;42.722;23.268;2023-03-21T04:24:37;12.05;;;5.43;;
42246;SDS011;27913;42.722;23.268;2023-03-21T04:27:04;14.30;;;6.38;;
42246;SDS011;27913;42.722;23.268;2023-03-21T04:29:30;19.17;;;5.50;;
42246;SDS011;27913;42.722;23.268;2023-03-21T04:31:56;13.93;;;5.50;;
42246;SDS011;27913;42.722;23.268;2023-03-21T04:34:21;13.30;;;5.38;;
42246;SDS011;27913;42.722;23.268;2023-03-21T04:36:55;15.30;;;5.50;;
42246;SDS011;27913;42.722;23.268;2023-03-21T04:39:21;21.25;;;5.35;;
42246;SDS011;27913;42.722;23.268;2023-03-21T04:41:48;12.80;;;4.63;;
42246;SDS011;27913;42.722;23.268;2023-03-21T04:44:14;9.63;;;4.53;;
42246;SDS011;27913;42.722;23.268;2023-03-21T04:46:41;11.05;;;4.63;;
42246;SDS011;27913;42.722;23.268;2023-03-21T04:49:07;8.18;;;3.25;;
42246;SDS011;27913;42.722;23.268;2023-03-21T04:51:33;10.57;;;4.32;;
42246;SDS011;27913;42.722;23.268;2023-03-21T04:53:59;11.88;;;4.07;;
42246;SDS011;27913;42.722;23.268;2023-03-21T04:56:28;9.63;;;4.03;;
42246;SDS011;27913;42.722;23.268;2023-03-21T04:58:58;16.73;;;4.45;;
42246;SDS011;27913;42.722;23.268;2023-03-21T05:01:25;16.83;;;4.97;;
42246;SDS011;27913;42.722;23.268;2023-03-21T05:03:55;13.15;;;4.25;;
42246;SDS011;27913;42.722;23.268;2023-03-21T05:06:24;9.38;;;4.18;;
42246;SDS011;27913;42.722;23.268;2023-03-21T05:08:50;10.38;;;4.47;;
42246;SDS011;27913;42.722;23.268;2023-03-21T05:11:16;10.88;;;4.15;;
42246;SDS011;27913;42.722;23.268;2023-03-21T05:13:41;10.05;;;4.68;;
42246;SDS011;27913;42.722;23.268;2023-03-21T05:16:07;10.15;;;4.75;;
42246;SDS011;27913;42.722;23.268;2023-03-21T05:18:33;18.90;;;5.35;;
42246;SDS011;27913;42.722;23.268;2023-03-21T05:21:02;16.60;;;5.18;;
42246;SDS011;27913;42.722;23.268;2023-03-21T05:23:31;18.92;;;5.80;;
42246;SDS011;27913;42.722;23.268;2023-03-21T05:26:02;13.45;;;4.80;;
42246;SDS011;27913;42.722;23.268;2023-03-21T05:28:31;16.42;;;6.28;;
42246;SDS011;27913;42.722;23.268;2023-03-21T05:31:01;38.25;;;13.32;;
42246;SDS011;27913;42.722;23.268;2023-03-21T05:33:28;34.00;;;13.65;;
42246;SDS011;27913;42.722;23.268;2023-03-21T05:35:53;67.18;;;24.33;;
42246;SDS011;27913;42.722;23.268;2023-03-21T05:38:19;75.68;;;31.08;;
42246;SDS011;27913;42.722;23.268;2023-03-21T05:40:48;42.33;;;17.67;;
42246;SDS011;27913;42.722;23.268;2023-03-21T05:43:14;44.78;;;16.00;;
42246;SDS011;27913;42.722;23.268;2023-03-21T05:45:40;41.95;;;17.33;;
42246;SDS011;27913;42.722;23.268;2023-03-21T05:48:05;43.85;;;15.57;;
42246;SDS011;27913;42.722;23.268;2023-03-21T05:50:31;30.42;;;12.55;;
42246;SDS011;27913;42.722;23.268;2023-03-21T05:52:56;21.90;;;9.02;;
42246;SDS011;27913;42.722;23.268;2023-03-21T05:55:22;25.33;;;8.20;;
42246;SDS011;27913;42.722;23.268;2023-03-21T05:57:48;29.35;;;10.68;;
42246;SDS011;27913;42.722;23.268;2023-03-21T06:00:13;66.47;;;22.40;;
42246;SDS011;27913;42.722;23.268;2023-03-21T06:02:39;111.53;;;31.80;;
42246;SDS011;27913;42.722;23.268;2023-03-21T06:05:06;118.45;;;36.05;;
42246;SDS011;27913;42.722;23.268;2023-03-21T06:07:32;140.68;;;38.42;;
42246;SDS011;27913;42.722;23.268;2023-03-21T06:09:57;126.75;;;38.92;;
42246;SDS011;27913;42.722;23.268;2023-03-21T06:12:23;87.72;;;29.98;;
42246;SDS011;27913;42.722;23.268;2023-03-21T06:14:49;71.43;;;24.00;;
42246;SDS011;27913;42.722;23.268;2023-03-21T06:17:15;64.60;;;22.00;;
42246;SDS011;27913;42.722;23.268;2023-03-21T06:19:40;50.80;;;16.85;;
42246;SDS011;27913;42.722;23.268;2023-03-21T06:22:06;41.78;;;18.00;;
42246;SDS011;27913;42.722;23.268;2023-03-21T06:24:32;38.83;;;14.77;;
42246;SDS011;27913;42.722;23.268;2023-03-21T06:26:57;39.38;;;17.33;;
42246;SDS011;27913;42.722;23.268;2023-03-21T06:29:23;47.70;;;18.58;;
42246;SDS011;27913;42.722;23.268;2023-03-21T06:31:50;37.65;;;15.68;;
42246;SDS011;27913;42.722;23.268;2023-03-21T06:34:15;38.05;;;14.55;;
42246;SDS011;27913;42.722;23.268;2023-03-21T06:36:41;24.40;;;12.00;;
42246;SDS011;27913;42.722;23.268;2023-03-21T06:39:08;26.92;;;11.68;;
42246;SDS011;27913;42.722;23.268;2023-03-21T06:41:35;40.42;;;11.07;;
42246;SDS011;27913;42.722;23.268;2023-03-21T06:44:00;22.52;;;10.13;;
42246;SDS011;27913;42.722;23.268;2023-03-21T06:46:26;20.95;;;7.00;;
42246;SDS011;27913;42.722;23.268;2023-03-21T06:48:52;20.23;;;8.35;;
42246;SDS011;27913;42.722;23.268;2023-03-21T06:51:17;22.33;;;8.23;;
42246;SDS011;27913;42.722;23.268;2023-03-21T06:53:43;20.25;;;8.68;;
42246;SDS011;27913;42.722;23.268;2023-03-21T06:56:10;21.40;;;8.48;;
42246;SDS011;27913;42.722;23.268;2023-03-21T06:58:36;29.48;;;8.82;;
42246;SDS011;27913;42.722;23.268;2023-03-21T07:01:02;15.50;;;6.18;;
42246;SDS011;27913;42.722;23.268;2023-03-21T07:03:28;14.75;;;6.32;;
42246;SDS011;27913;42.722;23.268;2023-03-21T07:05:54;16.33;;;6.82;;
42246;SDS011;27913;42.722;23.268;2023-03-21T07:08:27;17.67;;;5.95;;
42246;SDS011;27913;42.722;23.268;2023-03-21T07:10:54;17.05;;;6.38;;
42246;SDS011;27913;42.722;23.268;2023-03-21T07:13:21;21.40;;;6.72;;
42246;SDS011;27913;42.722;23.268;2023-03-21T07:15:47;13.98;;;7.18;;
42246;SDS011;27913;42.722;23.268;2023-03-21T07:18:13;17.80;;;7.43;;
42246;SDS011;27913;42.722;23.268;2023-03-21T07:20:38;13.75;;;6.13;;
42246;SDS011;27913;42.722;23.268;2023-03-21T07:23:04;11.70;;;4.25;;
42246;SDS011;27913;42.722;23.268;2023-03-21T07:25:31;18.75;;;5.13;;
42246;SDS011;27913;42.722;23.268;2023-03-21T07:27:56;12.93;;;5.50;;
42246;SDS011;27913;42.722;23.268;2023-03-21T07:30:22;13.35;;;5.53;;
42246;SDS011;27913;42.722;23.268;2023-03-21T07:32:47;13.00;;;5.32;;
42246;SDS011;27913;42.722;23.268;2023-03-21T07:35:13;10.20;;;4.32;;
42246;SDS011;27913;42.722;23.268;2023-03-21T07:37:41;15.27;;;5.53;;
42246;SDS011;27913;42.722;23.268;2023-03-21T07:40:07;19.73;;;5.60;;
42246;SDS011;27913;42.722;23.268;2023-03-21T07:42:34;10.98;;;4.80;;
42246;SDS011;27913;42.722;23.268;2023-03-21T07:45:06;12.52;;;4.47;;
42246;SDS011;27913;42.722;23.268;2023-03-21T07:47:33;12.43;;;5.53;;
42246;SDS011;27913;42.722;23.268;2023-03-21T07:49:59;13.90;;;5.70;;
42246;SDS011;27913;42.722;23.268;2023-03-21T07:52:26;13.52;;;5.60;;
42246;SDS011;27913;42.722;23.268;2023-03-21T07:54:51;15.10;;;4.95;;
42246;SDS011;27913;42.722;23.268;2023-03-21T07:57:17;10.52;;;4.70;;
42246;SDS011;27913;42.722;23.268;2023-03-21T07:59:43;17.15;;;5.07;;
42246;SDS011;27913;42.722;23.268;2023-03-21T08:02:15;11.65;;;5.13;;
42246;SDS011;27913;42.722;23.268;2023-03-21T08:04:41;16.17;;;5.10;;
42246;SDS011;27913;42.722;23.268;2023-03-21T08:07:08;12.65;;;5.00;;
42246;SDS011;27913;42.722;23.268;2023-03-21T08:09:34;12.68;;;5.30;;
42246;SDS011;27913;42.722;23.268;2023-03-21T08:12:00;13.32;;;5.22;;
42246;SDS011;27913;42.722;23.268;2023-03-21T08:14:25;11.65;;;5.15;;
42246;SDS011;27913;42.722;23.268;2023-03-21T08:16:51;11.23;;;4.70;;
42246;SDS011;27913;42.722;23.268;2023-03-21T08:19:17;12.60;;;4.95;;
42246;SDS011;27913;42.722;23.268;2023-03-21T08:21:45;17.30;;;4.57;;
42246;SDS011;27913;42.722;23.268;2023-03-21T08:24:15;11.27;;;4.53;;
42246;SDS011;27913;42.722;23.268;2023-03-21T08:26:41;8.23;;;4.03;;
42246;SDS011;27913;42.722;23.268;2023-03-21T08:29:08;9.65;;;4.32;;
42246;SDS011;27913;42.722;23.268;2023-03-21T08:31:34;12.93;;;4.78;;
42246;SDS011;27913;42.722;23.268;2023-03-21T08:34:00;12.13;;;4.60;;
42246;SDS011;27913;42.722;23.268;2023-03-21T08:36:26;12.43;;;4.95;;
42246;SDS011;27913;42.722;23.268;2023-03-21T08:38:51;11.95;;;4.90;;
42246;SDS011;27913;42.722;23.268;2023-03-21T08:41:21;14.75;;;4.30;;
42246;SDS011;27913;42.722;23.268;2023-03-21T08:43:48;15.05;;;5.30;;
42246;SDS011;27913;42.722;23.268;2023-03-21T08:46:13;10.00;;;4.43;;
42246;SDS011;27913;42.722;23.268;2023-03-21T08:48:40;13.23;;;4.80;;
42246;SDS011;27913;42.722;23.268;2023-03-21T08:51:06;9.32;;;3.95;;
42246;SDS011;27913;42.722;23.268;2023-03-21T08:53:32;10.57;;;4.82;;
42246;SDS011;27913;42.722;23.268;2023-03-21T08:55:57;6.68;;;3.00;;
42246;SDS011;27913;42.722;23.268;2023-03-21T08:58:23;9.48;;;4.20;;
42246;SDS011;27913;42.722;23.268;2023-03-21T09:00:48;10.20;;;4.00;;
42246;SDS011;27913;42.722;23.268;2023-03-21T09:03:14;9.15;;;4.32;;
42246;SDS011;27913;42.722;23.268;2023-03-21T09:05:40;7.22;;;3.25;;
42246;SDS011;27913;42.722;23.268;2023-03-21T09:08:05;11.30;;;4.53;;
42246;SDS011;27913;42.722;23.268;2023-03-21T09:10:31;12.32;;;4.30;;
42246;SDS011;27913;42.722;23.268;2023-03-21T09:12:57;9.10;;;4.13;;
42246;SDS011;27913;42.722;23.268;2023-03-21T09:15:24;8.15;;;4.10;;
42246;SDS011;27913;42.722;23.268;2023-03-21T09:17:53;13.13;;;4.60;;
42246;SDS011;27913;42.722;23.268;2023-03-21T09:20:21;12.20;;;5.22;;
42246;SDS011;27913;42.722;23.268;2023-03-21T09:22:54;8.50;;;4.05;;
42246;SDS011;27913;42.722;23.268;2023-03-21T09:25:21;12.20;;;4.13;;
42246;SDS011;27913;42.722;23.268;2023-03-21T09:27:47;8.70;;;3.92;;
42246;SDS011;27913;42.722;23.268;2023-03-21T09:30:17;9.35;;;4.10;;
42246;SDS011;27913;42.722;23.268;2023-03-21T09:32:45;11.73;;;4.60;;
42246;SDS011;27913;42.722;23.268;2023-03-21T09:35:16;16.45;;;5.00;;
42246;SDS011;27913;42.722;23.268;2023-03-21T09:37:43;9.93;;;4.13;;
42246;SDS011;27913;42.722;23.268;2023-03-21T09:40:20;11.10;;;4.97;;
42246;SDS011;27913;42.722;23.268;2023-03-21T09:45:45;15.80;;;5.10;;
42246;SDS011;27913;42.722;23.268;2023-03-21T09:48:31;8.88;;;3.65;;
42246;SDS011;27913;42.722;23.268;2023-03-21T09:51:03;11.60;;;3.95;;
42246;SDS011;27913;42.722;23.268;2023-03-21T09:53:34;12.57;;;3.97;;
42246;SDS011;27913;42.722;23.268;2023-03-21T09:58:43;12.35;;;4.07;;
42246;SDS011;27913;42.722;23.268;2023-03-21T10:01:27;8.20;;;4.28;;
42246;SDS011;27913;42.722;23.268;2023-03-21T10:03:58;9.95;;;4.43;;
42246;SDS011;27913;42.722;23.268;2023-03-21T10:06:27;10.88;;;4.82;;
42246;SDS011;27913;42.722;23.268;2023-03-21T10:14:36;11.98;;;4.80;;
42246;SDS011;27913;42.722;23.268;2023-03-21T10:17:26;8.10;;;4.30;;
42246;SDS011;27913;42.722;23.268;2023-03-21T10:20:18;12.52;;;4.95;;
42246;SDS011;27913;42.722;23.268;2023-03-21T10:22:45;10.48;;;4.78;;
42246;SDS011;27913;42.722;23.268;2023-03-21T10:25:17;19.80;;;6.05;;
42246;SDS011;27913;42.722;23.268;2023-03-21T10:27:45;11.75;;;5.00;;
42246;SDS011;27913;42.722;23.268;2023-03-21T10:33:03;12.65;;;5.25;;
42246;SDS011;27913;42.722;23.268;2023-03-21T10:35:33;11.73;;;5.40;;
42246;SDS011;27913;42.722;23.268;2023-03-21T10:38:02;12.20;;;4.85;;
42246;SDS011;27913;42.722;23.268;2023-03-21T10:40:29;13.45;;;5.45;;
42246;SDS011;27913;42.722;23.268;2023-03-21T10:42:55;11.68;;;4.78;;
42246;SDS011;27913;42.722;23.268;2023-03-21T10:45:38;12.40;;;5.20;;
42246;SDS011;27913;42.722;23.268;2023-03-21T10:48:05;10.90;;;4.07;;
42246;SDS011;27913;42.722;23.268;2023-03-21T10:50:32;7.55;;;3.45;;
42246;SDS011;27913;42.722;23.268;2023-03-21T10:52:57;12.20;;;4.15;;
42246;SDS011;27913;42.722;23.268;2023-03-21T10:55:28;9.43;;;3.53;;
42246;SDS011;27913;42.722;23.268;2023-03-21T10:58:05;9.25;;;3.67;;
42246;SDS011;27913;42.722;23.268;2023-03-21T11:00:38;10.90;;;4.13;;
42246;SDS011;27913;42.722;23.268;2023-03-21T11:03:05;10.98;;;4.40;;
42246;SDS011;27913;42.722;23.268;2023-03-21T11:05:33;9.32;;;3.92;;
42246;SDS011;27913;42.722;23.268;2023-03-21T11:08:06;11.10;;;4.40;;
42246;SDS011;27913;42.722;23.268;2023-03-21T11:10:37;7.60;;;3.40;;
42246;SDS011;27913;42.722;23.268;2023-03-21T11:13:17;11.27;;;4.50;;
42246;SDS011;27913;42.722;23.268;2023-03-21T11:15:51;10.45;;;4.30;;
42246;SDS011;27913;42.722;23.268;2023-03-21T11:18:23;12.73;;;4.10;;
42246;SDS011;27913;42.722;23.268;2023-03-21T11:20:58;9.88;;;3.85;;
42246;SDS011;27913;42.722;23.268;2023-03-21T11:23:29;11.35;;;3.92;;
42246;SDS011;27913;42.722;23.268;2023-03-21T11:25:57;7.38;;;3.30;;
42246;SDS011;27913;42.722;23.268;2023-03-21T11:28:26;10.40;;;3.35;;
42246;SDS011;27913;42.722;23.268;2023-03-21T11:31:00;9.07;;;3.33;;
42246;SDS011;27913;42.722;23.268;2023-03-21T11:33:33;10.15;;;3.55;;
42246;SDS011;27913;42.722;23.268;2023-03-21T11:38:43;14.27;;;4.85;;
42246;SDS011;27913;42.722;23.268;2023-03-21T11:41:30;13.15;;;4.55;;
42246;SDS011;27913;42.722;23.268;2023-03-21T11:43:57;15.25;;;5.20;;
42246;SDS011;27913;42.722;23.268;2023-03-21T11:46:25;13.13;;;4.63;;
42246;SDS011;27913;42.722;23.268;2023-03-21T11:48:53;17.65;;;6.43;;
42246;SDS011;27913;42.722;23.268;2023-03-21T11:56:50;11.20;;;4.43;;
42246;SDS011;27913;42.722;23.268;2023-03-21T11:59:55;6.97;;;2.58;;
42246;SDS011;27913;42.722;23.268;2023-03-21T12:05:26;7.32;;;2.88;;
42246;SDS011;27913;42.722;23.268;2023-03-21T12:08:05;6.85;;;2.97;;
42246;SDS011;27913;42.722;23.268;2023-03-21T12:11:34;7.18;;;2.90;;
42246;SDS011;27913;42.722;23.268;2023-03-21T12:19:42;7.40;;;3.03;;
42246;SDS011;27913;42.722;23.268;2023-03-21T12:22:14;6.45;;;3.00;;
42246;SDS011;27913;42.722;23.268;2023-03-21T12:24:55;6.38;;;2.53;;
42246;SDS011;27913;42.722;23.268;2023-03-21T12:44:03;15.18;;;5.47;;
42246;SDS011;27913;42.722;23.268;2023-03-21T12:46:38;9.38;;;3.55;;
42246;SDS011;27913;42.722;23.268;2023-03-21T12:51:54;20.00;;;7.75;;
42246;SDS011;27913;42.722;23.268;2023-03-21T12:57:07;8.13;;;3.28;;
42246;SDS011;27913;42.722;23.268;2023-03-21T13:02:09;6.47;;;2.85;;
42246;SDS011;27913;42.722;23.268;2023-03-21T13:04:51;14.45;;;5.10;;
42246;SDS011;27913;42.722;23.268;2023-03-21T13:07:30;8.07;;;3.22;;
42246;SDS011;27913;42.722;23.268;2023-03-21T13:09:59;4.83;;;2.10;;
42246;SDS011;27913;42.722;23.268;2023-03-21T13:15:07;12.63;;;3.00;;
42246;SDS011;27913;42.722;23.268;2023-03-21T13:17:51;10.60;;;2.50;;
42246;SDS011;27913;42.722;23.268;2023-03-21T13:20:39;9.38;;;3.10;;
42246;SDS011;27913;42.722;23.268;2023-03-21T13:23:10;15.25;;;5.40;;
42246;SDS011;27913;42.722;23.268;2023-03-21T13:25:41;13.75;;;5.57;;
42246;SDS011;27913;42.722;23.268;2023-03-21T13:28:29;18.58;;;4.40;;
42246;SDS011;27913;42.722;23.268;2023-03-21T13:31:40;9.05;;;3.30;;
42246;SDS011;27913;42.722;23.268;2023-03-21T13:33:51;10.90;;;3.88;;
42246;SDS011;27913;42.722;23.268;2023-03-21T13:36:26;14.52;;;5.38;;
42246;SDS011;27913;42.722;23.268;2023-03-21T13:38:57;14.13;;;4.68;;
42246;SDS011;27913;42.722;23.268;2023-03-21T13:59:11;9.25;;;4.00;;
42246;SDS011;27913;42.722;23.268;2023-03-21T14:01:38;9.30;;;3.28;;
42246;SDS011;27913;42.722;23.268;2023-03-21T14:06:41;20.05;;;9.05;;
42246;SDS011;27913;42.722;23.268;2023-03-21T14:09:07;17.50;;;7.53;;
42246;SDS011;27913;42.722;23.268;2023-03-21T14:11:38;9.20;;;4.53;;
42246;SDS011;27913;42.722;23.268;2023-03-21T14:14:05;10.70;;;3.30;;
42246;SDS011;27913;42.722;23.268;2023-03-21T14:16:31;7.82;;;3.05;;
42246;SDS011;27913;42.722;23.268;2023-03-21T14:19:02;15.00;;;3.53;;
42246;SDS011;27913;42.722;23.268;2023-03-21T14:21:31;7.72;;;2.92;;
42246;SDS011;27913;42.722;23.268;2023-03-21T14:26:33;8.38;;;3.08;;
42246;SDS011;27913;42.722;23.268;2023-03-21T14:29:03;9.25;;;3.55;;
42246;SDS011;27913;42.722;23.268;2023-03-21T14:31:29;8.27;;;3.50;;
42246;SDS011;27913;42.722;23.268;2023-03-21T14:33:56;9.13;;;3.58;;
42246;SDS011;27913;42.722;23.268;2023-03-21T14:36:30;8.75;;;3.72;;
42246;SDS011;27913;42.722;23.268;2023-03-21T14:39:06;9.02;;;3.92;;
42246;SDS011;27913;42.722;23.268;2023-03-21T14:44:20;7.90;;;3.05;;
42246;SDS011;27913;42.722;23.268;2023-03-21T14:46:52;6.35;;;3.13;;
42246;SDS011;27913;42.722;23.268;2023-03-21T14:49:28;11.13;;;3.70;;
42246;SDS011;27913;42.722;23.268;2023-03-21T14:52:09;10.85;;;3.45;;
42246;SDS011;27913;42.722;23.268;2023-03-21T14:54:38;13.45;;;4.93;;
42246;SDS011;27913;42.722;23.268;2023-03-21T14:57:18;14.60;;;4.35;;
42246;SDS011;27913;42.722;23.268;2023-03-21T14:59:49;12.85;;;4.90;;
42246;SDS011;27913;42.722;23.268;2023-03-21T15:02:31;10.85;;;3.75;;
42246;SDS011;27913;42.722;23.268;2023-03-21T15:05:10;6.78;;;2.60;;
42246;SDS011;27913;42.722;23.268;2023-03-21T15:07:41;6.53;;;2.83;;
42246;SDS011;27913;42.722;23.268;2023-03-21T15:10:16;6.63;;;2.72;;
42246;SDS011;27913;42.722;23.268;2023-03-21T15:12:55;6.18;;;2.58;;
42246;SDS011;27913;42.722;23.268;2023-03-21T15:15:25;5.80;;;2.80;;
42246;SDS011;27913;42.722;23.268;2023-03-21T15:17:52;7.35;;;3.40;;
42246;SDS011;27913;42.722;23.268;2023-03-21T15:20:23;8.30;;;4.13;;
42246;SDS011;27913;42.722;23.268;2023-03-21T15:22:56;9.90;;;4.55;;
42246;SDS011;27913;42.722;23.268;2023-03-21T15:25:29;9.00;;;4.22;;
42246;SDS011;27913;42.722;23.268;2023-03-21T15:27:58;7.10;;;3.58;;
42246;SDS011;27913;42.722;23.268;2023-03-21T15:30:28;13.15;;;4.80;;
42246;SDS011;27913;42.722;23.268;2023-03-21T15:32:56;9.05;;;5.07;;
42246;SDS011;27913;42.722;23.268;2023-03-21T15:35:27;12.70;;;7.10;;
42246;SDS011;27913;42.722;23.268;2023-03-21T15:38:01;9.57;;;4.85;;
42246;SDS011;27913;42.722;23.268;2023-03-21T15:40:29;8.93;;;4.15;;
42246;SDS011;27913;42.722;23.268;2023-03-21T15:43:06;9.93;;;6.05;;
42246;SDS011;27913;42.722;23.268;2023-03-21T15:45:49;9.95;;;5.68;;
42246;SDS011;27913;42.722;23.268;2023-03-21T15:48:20;17.15;;;9.93;;
42246;SDS011;27913;42.722;23.268;2023-03-21T15:50:52;16.42;;;10.13;;
42246;SDS011;27913;42.722;23.268;2023-03-21T15:53:21;16.77;;;9.77;;
42246;SDS011;27913;42.722;23.268;2023-03-21T15:55:51;24.92;;;10.80;;
42246;SDS011;27913;42.722;23.268;2023-03-21T15:58:21;32.80;;;10.15;;
42246;SDS011;27913;42.722;23.268;2023-03-21T16:00:56;15.98;;;5.97;;
42246;SDS011;27913;42.722;23.268;2023-03-21T16:03:32;39.10;;;12.00;;
42246;SDS011;27913;42.722;23.268;2023-03-21T16:08:46;44.20;;;15.55;;
42246;SDS011;27913;42.722;23.268;2023-03-21T16:13:46;40.67;;;13.57;;
42246;SDS011;27913;42.722;23.268;2023-03-21T16:16:16;21.70;;;7.57;;
42246;SDS011;27913;42.722;23.268;2023-03-21T16:18:45;12.02;;;4.78;;
42246;SDS011;27913;42.722;23.268;2023-03-21T16:21:12;9.55;;;3.85;;
42246;SDS011;27913;42.722;23.268;2023-03-21T16:23:39;8.43;;;3.80;;
42246;SDS011;27913;42.722;23.268;2023-03-21T16:26:05;9.25;;;3.90;;
42246;SDS011;27913;42.722;23.268;2023-03-21T16:28:31;8.98;;;4.00;;
42246;SDS011;27913;42.722;23.268;2023-03-21T16:30:56;10.38;;;4.60;;
42246;SDS011;27913;42.722;23.268;2023-03-21T16:33:22;12.30;;;5.15;;
42246;SDS011;27913;42.722;23.268;2023-03-21T16:35:49;11.02;;;5.10;;
42246;SDS011;27913;42.722;23.268;2023-03-21T16:38:16;11.95;;;5.68;;